Portada
METAR-TAF:

METAR-TAF

Aeropuertos :

Kunming, China

Aeropuerto Internacional de Kunming-Changshui

latitud: 25-01N, longitud: 102-41E, altitud: 1892 m

Observación

El informe se hizo hace 37 minutos, a las 08:00 UTC
Viento 4 kt del sur-sureste, variando entre este-sureste y sur-suroeste
Temperatura 22°C
Humedad 43%
Presión 1019 hPa
Visibilidad 10 km o más
Nubes dispersas a una altura de 2600 ft
Cielo nuboso a una altura de 4300 ft

METAR: ZPPP 280800Z 16002MPS 120V200 9999 SCT026 BKN043 22/09 Q1019 NOSIG

Hora: 16:37 (08:37 UTC)

Pronóstico

El informe se hizo hace 7 horas y 31 minutos, a las 01:06 UTC
Pronóstico válido del 28 a las 06 UTC al 29 a las 06 UTC
Viento 10 kt del suroeste
Visibilidad 10 km o más
Nubes dispersas a una altura de 2600 ft

TAF: ZPPP 280106Z 2806/2906 22005MPS 9999 SCT026 TX25/2808Z TN12/2823Z

Observaciones y pronósticos meteorológicos de más de 4000 aeropuertos (mensajes METAR y TAF).

Los puntos amarillos y rojos representan las estaciones disponibles.

Ponga el ratón en el punto deseado para ver el nombre de la estación.

Haga clic para ver las observaciones y los pronósticos meteorológicos.

Para cambiar el mapa : haga clic en los botones verdes con una cruz de color negro para hacer un zoom, en el botón verde con un guión para alejar o en las flechas verdes para mapas adyacentes.


METAR-TAF: